createdAt,value
2023-11-28T00:02:17.137Z,3.80
2023-11-28T00:04:45.151Z,2.87
2023-11-28T00:07:12.920Z,2.80
2023-11-28T00:09:40.326Z,3.33
2023-11-28T00:12:08.539Z,2.10
2023-11-28T00:14:35.979Z,3.73
2023-11-28T00:17:04.074Z,2.43
2023-11-28T00:19:31.988Z,2.78
2023-11-28T00:21:59.408Z,2.40
2023-11-28T00:24:27.270Z,2.43
2023-11-28T00:26:55.209Z,2.57
2023-11-28T00:29:22.818Z,2.50
2023-11-28T00:31:50.405Z,3.17
2023-11-28T00:34:18.932Z,2.95
2023-11-28T00:36:46.417Z,2.87
2023-11-28T00:39:14.881Z,3.07
2023-11-28T00:41:42.745Z,2.72
2023-11-28T00:44:11.169Z,2.20
2023-11-28T00:46:42.979Z,3.60
2023-11-28T00:49:14.245Z,3.07
2023-11-28T00:51:45.500Z,2.63
2023-11-28T00:54:13.512Z,2.67
2023-11-28T00:56:40.977Z,3.23
2023-11-28T00:59:08.477Z,2.87
2023-11-28T01:01:36.369Z,3.73
2023-11-28T01:04:04.140Z,4.63
2023-11-28T01:06:32.646Z,2.53
2023-11-28T01:09:00.556Z,2.70
2023-11-28T01:11:28.057Z,2.20
2023-11-28T01:13:55.910Z,2.83
2023-11-28T01:16:24.132Z,2.73
2023-11-28T01:18:52.610Z,2.90
2023-11-28T01:21:20.158Z,2.40
2023-11-28T01:23:48.078Z,3.00
2023-11-28T01:26:15.528Z,2.70
2023-11-28T01:28:44.425Z,3.03
2023-11-28T01:31:13.443Z,3.37
2023-11-28T01:33:41.113Z,2.50
2023-11-28T01:36:09.167Z,2.30
2023-11-28T01:38:38.646Z,1.87
2023-11-28T01:41:06.668Z,3.12
2023-11-28T01:43:35.701Z,2.20
2023-11-28T01:46:10.894Z,3.10
2023-11-28T01:48:39.761Z,2.50
2023-11-28T01:53:37.669Z,2.73
2023-11-28T01:56:05.836Z,2.85
2023-11-28T01:58:33.986Z,2.28
2023-11-28T02:01:01.915Z,2.10
2023-11-28T02:03:30.433Z,2.23
2023-11-28T02:05:58.810Z,2.23
2023-11-28T02:08:27.500Z,2.53
2023-11-28T02:10:55.396Z,2.40
2023-11-28T02:13:22.852Z,1.97
2023-11-28T02:15:51.462Z,1.73
2023-11-28T02:18:19.048Z,2.10
2023-11-28T02:20:46.746Z,2.27
2023-11-28T02:23:15.322Z,1.67
2023-11-28T02:25:51.367Z,2.27
2023-11-28T02:28:20.567Z,1.97
2023-11-28T02:30:49.083Z,1.35
2023-11-28T02:33:17.615Z,2.15
2023-11-28T02:35:46.917Z,1.83
2023-11-28T02:38:15.053Z,1.40
2023-11-28T02:40:43.458Z,2.57
2023-11-28T02:43:11.700Z,1.90
2023-11-28T02:45:39.154Z,2.07
2023-11-28T02:48:06.816Z,2.33
2023-11-28T02:50:34.663Z,1.87
2023-11-28T02:53:02.388Z,2.60
2023-11-28T02:55:29.984Z,2.00
2023-11-28T02:57:59.956Z,3.80
2023-11-28T03:00:27.825Z,2.00
2023-11-28T03:02:55.583Z,1.80
2023-11-28T03:05:23.496Z,1.43
2023-11-28T03:07:52.753Z,2.20
2023-11-28T03:10:20.684Z,2.05
2023-11-28T03:12:49.949Z,2.17
2023-11-28T03:15:17.477Z,1.80
2023-11-28T03:17:46.201Z,2.08
2023-11-28T03:20:14.340Z,1.50
2023-11-28T03:22:42.301Z,1.97
2023-11-28T03:25:12.997Z,2.10
2023-11-28T03:27:41.095Z,1.70
2023-11-28T03:30:09.238Z,1.97
2023-11-28T03:32:37.229Z,1.93
2023-11-28T03:35:05.751Z,1.62
2023-11-28T03:37:33.343Z,2.13
2023-11-28T03:40:02.449Z,1.98
2023-11-28T03:42:30.354Z,2.10
2023-11-28T03:44:57.807Z,1.60
2023-11-28T03:47:25.398Z,1.97
2023-11-28T03:49:53.358Z,1.63
2023-11-28T03:52:20.853Z,1.93
2023-11-28T03:54:48.481Z,1.50
2023-11-28T03:57:16.356Z,1.93
2023-11-28T03:59:44.302Z,1.90
2023-11-28T04:02:11.891Z,2.20
2023-11-28T04:04:39.954Z,1.80
2023-11-28T04:07:07.805Z,2.07
2023-11-28T04:09:35.788Z,1.87
2023-11-28T04:12:03.773Z,2.00
2023-11-28T04:14:31.341Z,2.70
2023-11-28T04:16:58.789Z,2.80
2023-11-28T04:19:26.683Z,2.70
2023-11-28T04:21:54.615Z,2.10
2023-11-28T04:24:22.097Z,2.73
2023-11-28T04:26:50.146Z,2.47
2023-11-28T04:29:19.648Z,2.50
2023-11-28T04:31:47.377Z,2.10
2023-11-28T04:34:15.529Z,1.37
2023-11-28T04:36:43.132Z,2.47
2023-11-28T04:39:12.745Z,2.00
2023-11-28T04:41:40.672Z,2.40
2023-11-28T04:44:08.878Z,3.03
2023-11-28T04:46:36.735Z,2.43
2023-11-28T04:49:04.636Z,1.77
2023-11-28T04:51:32.287Z,1.90
2023-11-28T04:54:00.039Z,2.07
2023-11-28T04:56:28.825Z,2.03
2023-11-28T04:58:56.730Z,1.92
2023-11-28T05:01:26.752Z,2.00
2023-11-28T05:03:54.944Z,3.30
2023-11-28T05:06:23.980Z,1.90
2023-11-28T05:08:51.758Z,1.55
2023-11-28T05:11:20.591Z,3.00
2023-11-28T05:13:48.576Z,2.50
2023-11-28T05:16:16.236Z,2.27
2023-11-28T05:18:44.499Z,1.80
2023-11-28T05:21:14.420Z,2.33
2023-11-28T05:23:43.766Z,2.27
2023-11-28T05:26:12.272Z,2.00
2023-11-28T05:28:39.989Z,2.40
2023-11-28T05:31:09.102Z,1.98
2023-11-28T05:33:37.309Z,2.10
2023-11-28T05:36:07.496Z,2.07
2023-11-28T05:38:35.782Z,1.93
2023-11-28T05:41:05.062Z,2.15
2023-11-28T05:43:34.049Z,2.53
2023-11-28T05:46:02.215Z,2.85
2023-11-28T05:48:31.059Z,2.65
2023-11-28T05:50:59.351Z,2.27
2023-11-28T05:53:27.098Z,4.07
2023-11-28T05:55:55.071Z,3.30
2023-11-28T05:58:22.781Z,2.93
2023-11-28T06:00:51.053Z,3.30
2023-11-28T06:03:19.303Z,2.55
2023-11-28T06:05:47.059Z,2.80
2023-11-28T06:08:15.376Z,2.40
2023-11-28T06:10:44.230Z,2.40
2023-11-28T06:13:12.359Z,2.57
2023-11-28T06:15:39.884Z,2.33
2023-11-28T06:18:09.259Z,2.22
2023-11-28T06:20:38.517Z,2.37
2023-11-28T06:23:06.166Z,2.58
2023-11-28T06:25:34.116Z,3.07
2023-11-28T06:28:01.755Z,4.10
2023-11-28T06:30:29.279Z,3.17
2023-11-28T06:32:57.197Z,4.47
2023-11-28T06:35:26.291Z,3.10
2023-11-28T06:40:22.746Z,2.63
2023-11-28T06:42:50.265Z,2.40
2023-11-28T06:45:17.958Z,2.13
2023-11-28T06:47:45.905Z,2.30
2023-11-28T06:50:14.968Z,3.10
2023-11-28T06:52:43.584Z,2.50
2023-11-28T06:55:11.693Z,1.92
2023-11-28T06:57:39.355Z,1.87
2023-11-28T07:00:08.624Z,3.30
2023-11-28T07:02:37.716Z,2.73
2023-11-28T07:05:06.195Z,2.12
2023-11-28T07:07:34.163Z,3.60
2023-11-28T07:10:02.073Z,2.23
2023-11-28T07:12:29.652Z,2.83
2023-11-28T07:14:57.549Z,2.80
2023-11-28T07:17:27.411Z,2.20
2023-11-28T07:19:54.981Z,3.03
2023-11-28T07:22:22.558Z,2.83
2023-11-28T07:24:50.546Z,2.10
2023-11-28T07:27:18.239Z,2.47
2023-11-28T07:29:45.916Z,2.53
2023-11-28T07:32:13.969Z,1.93
2023-11-28T07:34:41.609Z,2.83
2023-11-28T07:37:09.575Z,3.30
2023-11-28T07:39:37.485Z,2.60
2023-11-28T07:42:06.229Z,2.57
2023-11-28T07:44:33.794Z,2.50
2023-11-28T07:47:01.671Z,7.57
2023-11-28T07:49:29.238Z,2.70
2023-11-28T07:51:56.754Z,1.97
2023-11-28T07:54:24.563Z,2.40
2023-11-28T07:56:52.064Z,2.37
2023-11-28T07:59:19.607Z,2.30
2023-11-28T08:01:47.575Z,1.70
2023-11-28T08:04:16.227Z,2.53
2023-11-28T08:06:43.767Z,2.67
2023-11-28T08:09:11.221Z,3.60
2023-11-28T08:11:39.667Z,2.60
2023-11-28T08:14:08.718Z,4.37
2023-11-28T08:16:36.987Z,2.12
2023-11-28T08:19:05.031Z,2.87
2023-11-28T08:21:32.672Z,2.33
2023-11-28T08:24:02.109Z,2.83
2023-11-28T08:26:30.055Z,2.50
2023-11-28T08:28:57.751Z,2.73
2023-11-28T08:31:25.732Z,1.90
2023-11-28T08:33:53.778Z,3.33
2023-11-28T08:36:21.384Z,4.10
2023-11-28T08:38:48.988Z,2.40
2023-11-28T08:41:16.868Z,2.97
2023-11-28T08:43:44.622Z,3.10
2023-11-28T08:46:15.600Z,7.27
2023-11-28T08:48:43.646Z,2.63
2023-11-28T08:51:11.162Z,2.50
2023-11-28T08:53:39.509Z,2.43
2023-11-28T08:56:13.384Z,3.12
2023-11-28T08:58:41.276Z,2.30
2023-11-28T09:01:09.478Z,4.27
2023-11-28T09:03:37.214Z,6.23
2023-11-28T09:06:04.967Z,2.50
2023-11-28T09:08:33.091Z,2.10
2023-11-28T09:11:01.076Z,2.17
2023-11-28T09:13:28.814Z,1.83
2023-11-28T09:15:57.365Z,2.20
2023-11-28T09:18:29.073Z,2.53
2023-11-28T09:20:57.244Z,1.83
2023-11-28T09:23:26.463Z,1.97
2023-11-28T09:26:02.423Z,3.20
2023-11-28T09:28:34.048Z,2.00
2023-11-28T09:31:02.290Z,2.07
2023-11-28T09:33:30.363Z,2.60
2023-11-28T09:35:58.610Z,2.33
2023-11-28T09:38:26.301Z,1.77
2023-11-28T09:40:55.090Z,2.13
2023-11-28T09:43:27.903Z,1.90
2023-11-28T09:46:02.595Z,2.47
2023-11-28T09:48:31.862Z,2.50
2023-11-28T09:51:02.828Z,2.50
2023-11-28T09:53:37.927Z,2.73
2023-11-28T09:56:08.383Z,2.27
2023-11-28T09:58:38.147Z,3.03
2023-11-28T10:01:08.089Z,3.90
2023-11-28T10:03:36.345Z,3.43
2023-11-28T10:06:05.065Z,2.67
2023-11-28T10:08:36.518Z,3.00
2023-11-28T10:11:06.726Z,2.30
2023-11-28T10:16:02.794Z,2.57
2023-11-28T10:18:32.204Z,2.60
2023-11-28T10:21:00.071Z,3.03
2023-11-28T10:23:28.748Z,3.60
2023-11-28T10:28:25.318Z,2.60
2023-11-28T10:30:54.305Z,2.93
2023-11-28T10:33:23.620Z,2.33
2023-11-28T10:35:51.500Z,2.37
2023-11-28T10:38:19.676Z,3.40
2023-11-28T10:40:50.180Z,3.50
2023-11-28T10:43:18.579Z,3.80
2023-11-28T10:45:47.229Z,2.97
2023-11-28T10:48:16.222Z,2.40
2023-11-28T10:50:44.885Z,2.30
2023-11-28T10:53:17.027Z,2.35
2023-11-28T10:55:51.065Z,2.47
2023-11-28T10:58:20.460Z,3.00
2023-11-28T11:00:54.838Z,2.90
2023-11-28T11:03:25.841Z,2.53
2023-11-28T11:05:54.281Z,3.33
2023-11-28T11:08:23.341Z,3.20
2023-11-28T11:10:52.975Z,2.97
2023-11-28T11:13:54.889Z,3.63
2023-11-28T11:16:55.967Z,3.33
2023-11-28T11:19:25.297Z,2.87
2023-11-28T11:22:14.769Z,4.00
2023-11-28T11:24:44.557Z,3.23
2023-11-28T11:29:41.846Z,3.70
2023-11-28T11:32:14.169Z,3.83
2023-11-28T11:34:43.449Z,5.00
2023-11-28T11:37:15.193Z,3.70
2023-11-28T11:39:44.417Z,3.40
2023-11-28T11:42:18.792Z,4.03
2023-11-28T11:44:52.465Z,4.73
2023-11-28T11:47:25.591Z,6.23
2023-11-28T11:49:54.910Z,3.87
2023-11-28T11:52:26.642Z,3.63
2023-11-28T11:55:08.210Z,3.30
2023-11-28T11:57:38.988Z,3.90
2023-11-28T12:00:14.804Z,4.47
2023-11-28T12:02:44.969Z,6.33
2023-11-28T12:05:13.974Z,4.60
2023-11-28T12:07:42.873Z,3.55
2023-11-28T12:10:14.169Z,4.60
2023-11-28T12:12:42.544Z,3.77
2023-11-28T12:15:14.050Z,3.43
2023-11-28T12:17:42.793Z,3.03
2023-11-28T12:20:12.310Z,2.35
2023-11-28T12:25:08.324Z,2.60
2023-11-28T12:27:35.939Z,2.97
2023-11-28T12:30:04.603Z,3.10
2023-11-28T12:32:34.158Z,2.03
2023-11-28T12:35:02.130Z,3.93
2023-11-28T12:37:33.513Z,3.75
2023-11-28T12:40:05.028Z,2.93
2023-11-28T12:42:32.597Z,2.80
2023-11-28T12:45:02.432Z,3.40
2023-11-28T12:47:31.990Z,2.43
2023-11-28T12:55:38.032Z,2.87
2023-11-28T12:58:06.048Z,3.12
2023-11-28T13:00:33.503Z,2.70
2023-11-28T13:03:02.196Z,3.73
2023-11-28T13:05:31.136Z,3.67
2023-11-28T13:07:58.782Z,2.83
2023-11-28T13:10:26.456Z,3.20
2023-11-28T13:13:03.740Z,3.73
2023-11-28T13:15:39.567Z,2.50
2023-11-28T13:18:07.586Z,2.93
2023-11-28T13:20:35.241Z,2.77
2023-11-28T13:23:02.877Z,3.03
2023-11-28T13:25:30.812Z,3.63
2023-11-28T13:27:58.830Z,2.60
2023-11-28T13:30:27.429Z,2.87
2023-11-28T13:32:58.574Z,2.55
2023-11-28T13:35:27.033Z,2.73
2023-11-28T13:37:55.009Z,2.60
2023-11-28T13:40:22.577Z,2.53
2023-11-28T13:42:50.264Z,2.30
2023-11-28T13:45:18.793Z,3.37
2023-11-28T13:47:46.998Z,3.00
2023-11-28T13:50:14.892Z,3.03
2023-11-28T13:52:42.899Z,2.50
2023-11-28T13:55:10.480Z,3.27
2023-11-28T13:57:38.065Z,2.53
2023-11-28T14:00:07.885Z,3.10
2023-11-28T14:02:43.595Z,3.20
2023-11-28T14:05:13.852Z,2.47
2023-11-28T14:07:41.890Z,2.55
2023-11-28T14:10:10.401Z,2.60
2023-11-28T14:12:39.779Z,3.22
2023-11-28T14:15:08.469Z,3.27
2023-11-28T14:17:37.781Z,4.10
2023-11-28T14:20:09.331Z,3.63
2023-11-28T14:22:37.543Z,6.13
2023-11-28T14:25:05.830Z,7.97
2023-11-28T14:27:33.397Z,5.10
2023-11-28T14:30:01.371Z,5.37
2023-11-28T14:32:29.358Z,5.43
2023-11-28T14:34:58.691Z,5.93
2023-11-28T14:37:26.933Z,3.87
2023-11-28T14:39:54.800Z,4.03
2023-11-28T14:42:22.512Z,11.67
2023-11-28T14:44:51.269Z,17.23
2023-11-28T14:47:19.636Z,19.95
2023-11-28T14:49:47.361Z,13.60
2023-11-28T14:52:16.913Z,6.90
2023-11-28T14:54:44.678Z,9.10
2023-11-28T14:57:15.052Z,7.10
2023-11-28T14:59:43.373Z,6.90
2023-11-28T15:02:11.850Z,6.47
2023-11-28T15:04:39.534Z,5.77
2023-11-28T15:07:07.769Z,5.27
2023-11-28T15:09:35.916Z,6.23
2023-11-28T15:12:05.396Z,7.93
2023-11-28T15:14:33.457Z,5.93
2023-11-28T15:17:02.467Z,4.30
2023-11-28T15:19:30.087Z,4.80
2023-11-28T15:21:58.179Z,6.37
2023-11-28T15:24:27.251Z,5.60
2023-11-28T15:26:55.617Z,6.68
2023-11-28T15:29:23.650Z,5.15
2023-11-28T15:31:54.211Z,9.93
2023-11-28T15:34:24.267Z,9.67
2023-11-28T15:36:52.193Z,15.33
2023-11-28T15:39:19.774Z,7.73
2023-11-28T15:41:47.251Z,6.20
2023-11-28T15:44:15.233Z,5.97
2023-11-28T15:46:46.116Z,6.30
2023-11-28T15:49:13.762Z,5.57
2023-11-28T15:51:41.727Z,6.13
2023-11-28T15:54:09.718Z,5.73
2023-11-28T15:56:37.495Z,9.10
2023-11-28T15:59:06.034Z,8.53
2023-11-28T16:01:33.750Z,6.53
2023-11-28T16:04:01.704Z,7.10
2023-11-28T16:06:29.376Z,6.50
2023-11-28T16:08:57.110Z,7.13
2023-11-28T16:11:26.104Z,7.33
2023-11-28T16:13:53.816Z,7.25
2023-11-28T16:16:23.098Z,7.10
2023-11-28T16:18:51.113Z,6.90
2023-11-28T16:21:25.371Z,6.97
2023-11-28T16:23:53.306Z,6.57
2023-11-28T16:26:22.576Z,7.50
2023-11-28T16:31:22.442Z,7.43
2023-11-28T16:33:50.292Z,8.37
2023-11-28T16:36:18.195Z,7.63
2023-11-28T16:38:45.825Z,8.83
2023-11-28T16:41:17.591Z,9.33
2023-11-28T16:43:45.985Z,12.83
2023-11-28T16:46:13.634Z,8.73
2023-11-28T16:48:41.272Z,9.83
2023-11-28T16:51:12.145Z,9.03
2023-11-28T16:53:39.717Z,9.10
2023-11-28T16:56:08.368Z,9.37
2023-11-28T16:58:36.744Z,8.70
2023-11-28T17:01:06.814Z,8.70
2023-11-28T17:03:34.804Z,15.27
2023-11-28T17:06:02.863Z,10.75
2023-11-28T17:08:30.632Z,11.03
2023-11-28T17:10:58.235Z,18.83
2023-11-28T17:13:28.859Z,13.47
2023-11-28T17:15:56.705Z,12.10
2023-11-28T17:18:24.615Z,16.43
2023-11-28T17:20:52.531Z,16.33
2023-11-28T17:23:21.017Z,20.27
2023-11-28T17:25:49.437Z,11.85
2023-11-28T17:28:17.961Z,8.38
2023-11-28T17:30:46.804Z,14.43
2023-11-28T17:33:14.558Z,9.38
2023-11-28T17:35:43.610Z,11.43
2023-11-28T17:38:11.907Z,8.93
2023-11-28T17:40:39.622Z,12.47
2023-11-28T17:43:08.507Z,9.70
2023-11-28T17:45:38.075Z,13.17
2023-11-28T17:48:06.206Z,10.07
2023-11-28T17:50:34.371Z,19.70
2023-11-28T17:53:02.353Z,12.13
2023-11-28T17:55:29.979Z,16.13
2023-11-28T17:57:59.448Z,13.13
2023-11-28T18:00:27.148Z,9.85
2023-11-28T18:02:55.312Z,11.97
2023-11-28T18:05:23.650Z,11.17
2023-11-28T18:07:51.264Z,8.97
2023-11-28T18:10:21.707Z,8.47
2023-11-28T18:12:49.254Z,9.80
2023-11-28T18:15:26.176Z,15.77
2023-11-28T18:18:01.920Z,15.07
2023-11-28T18:20:29.899Z,9.00
2023-11-28T18:23:00.601Z,14.23
2023-11-28T18:25:29.110Z,13.17
2023-11-28T18:27:58.540Z,14.13
2023-11-28T18:30:26.724Z,10.47
2023-11-28T18:32:54.947Z,11.80
2023-11-28T18:35:23.209Z,10.30
2023-11-28T18:37:51.653Z,11.10
2023-11-28T18:40:22.877Z,16.12
2023-11-28T18:42:51.655Z,14.87
2023-11-28T18:45:21.246Z,27.02
2023-11-28T18:47:49.956Z,23.13
2023-11-28T18:50:18.785Z,78.70
2023-11-28T18:52:50.044Z,133.52
2023-11-28T18:55:20.415Z,47.50
2023-11-28T18:57:48.718Z,30.13
2023-11-28T19:00:21.419Z,35.77
2023-11-28T19:02:51.716Z,35.10
2023-11-28T19:05:22.367Z,37.50
2023-11-28T19:07:51.095Z,31.70
2023-11-28T19:10:21.209Z,27.97
2023-11-28T19:12:49.308Z,25.53
2023-11-28T19:15:17.569Z,11.63
2023-11-28T19:17:45.324Z,3.27
2023-11-28T19:20:13.128Z,18.03
2023-11-28T19:22:41.181Z,7.53
2023-11-28T19:25:08.980Z,1.80
2023-11-28T19:27:36.705Z,3.30
2023-11-28T19:30:05.292Z,11.27
2023-11-28T19:32:33.029Z,4.67
2023-11-28T19:35:00.759Z,16.23
2023-11-28T19:37:29.054Z,17.43
2023-11-28T19:39:56.599Z,19.97
2023-11-28T19:42:24.173Z,11.33
2023-11-28T19:44:52.282Z,27.37
2023-11-28T19:47:19.878Z,35.17
2023-11-28T19:49:47.464Z,26.43
2023-11-28T19:52:15.403Z,21.07
2023-11-28T19:54:43.078Z,22.20
2023-11-28T19:57:10.661Z,25.83
2023-11-28T19:59:41.791Z,16.30
2023-11-28T20:02:09.515Z,15.50
2023-11-28T20:04:37.670Z,15.47
2023-11-28T20:07:05.727Z,20.00
2023-11-28T20:09:33.361Z,14.77
2023-11-28T20:12:01.342Z,7.07
2023-11-28T20:14:29.202Z,57.30
2023-11-28T20:16:56.932Z,37.40
2023-11-28T20:19:25.603Z,31.33
2023-11-28T20:21:54.729Z,29.77
2023-11-28T20:24:22.290Z,29.48
2023-11-28T20:26:51.950Z,203.00
2023-11-28T20:29:19.684Z,39.28
2023-11-28T20:31:47.250Z,51.50
2023-11-28T20:34:15.093Z,69.30
2023-11-28T20:36:42.742Z,64.90
2023-11-28T20:39:11.107Z,71.70
2023-11-28T20:41:39.038Z,32.72
2023-11-28T20:44:08.750Z,34.33
2023-11-28T20:46:36.773Z,54.00
2023-11-28T20:49:04.848Z,37.80
2023-11-28T20:51:32.413Z,11.37
2023-11-28T20:54:00.080Z,9.03
2023-11-28T20:56:29.669Z,5.33
2023-11-28T20:58:57.282Z,21.05
2023-11-28T21:01:29.945Z,20.33
2023-11-28T21:03:58.024Z,22.77
2023-11-28T21:06:25.751Z,3.53
2023-11-28T21:08:53.630Z,43.17
2023-11-28T21:11:22.201Z,8.23
2023-11-28T21:13:49.881Z,13.77
2023-11-28T21:16:18.940Z,31.93
2023-11-28T21:18:47.127Z,9.97
2023-11-28T21:21:24.612Z,11.93
2023-11-28T21:23:52.995Z,34.73
2023-11-28T21:26:23.007Z,21.67
2023-11-28T21:28:51.807Z,23.20
2023-11-28T21:31:20.068Z,23.20
2023-11-28T21:33:47.833Z,14.53
2023-11-28T21:36:17.792Z,13.63
2023-11-28T21:38:47.173Z,4.47
2023-11-28T21:41:17.591Z,3.47
2023-11-28T21:46:14.307Z,3.37
2023-11-28T21:48:47.276Z,2.83
2023-11-28T21:51:15.452Z,2.23
2023-11-28T21:53:43.888Z,2.37
2023-11-28T21:56:11.522Z,1.33
2023-11-28T21:58:39.579Z,1.43
2023-11-28T22:01:07.384Z,1.63
2023-11-28T22:03:35.514Z,7.67
2023-11-28T22:06:05.369Z,14.10
2023-11-28T22:08:33.099Z,9.33
2023-11-28T22:11:01.230Z,7.63
2023-11-28T22:13:28.854Z,7.47
2023-11-28T22:15:56.542Z,6.93
2023-11-28T22:18:24.471Z,5.07
2023-11-28T22:20:52.025Z,7.10
2023-11-28T22:23:19.646Z,10.23
2023-11-28T22:25:47.627Z,21.30
2023-11-28T22:28:18.146Z,24.00
2023-11-28T22:30:45.744Z,19.30
2023-11-28T22:33:13.747Z,4.03
2023-11-28T22:35:41.276Z,3.30
2023-11-28T22:38:08.931Z,1.50
2023-11-28T22:40:36.857Z,5.23
2023-11-28T22:43:04.405Z,20.30
2023-11-28T22:45:32.822Z,6.67
2023-11-28T22:50:30.076Z,22.53
2023-11-28T22:52:58.312Z,13.38
2023-11-28T22:55:26.621Z,13.60
2023-11-28T22:57:54.913Z,8.93
2023-11-28T23:00:23.619Z,12.10
2023-11-28T23:02:51.631Z,17.62
2023-11-28T23:05:19.392Z,16.80
2023-11-28T23:07:47.009Z,15.40
2023-11-28T23:10:15.375Z,18.73
2023-11-28T23:12:42.994Z,23.00
2023-11-28T23:15:11.324Z,21.43
2023-11-28T23:17:39.970Z,17.42
2023-11-28T23:20:08.204Z,19.77
2023-11-28T23:22:40.479Z,28.97
2023-11-28T23:25:12.443Z,31.33
2023-11-28T23:27:40.038Z,25.40
2023-11-28T23:30:08.324Z,31.03
2023-11-28T23:32:36.302Z,22.80
2023-11-28T23:35:04.652Z,29.13
2023-11-28T23:37:32.364Z,31.03
2023-11-28T23:40:01.192Z,21.50
2023-11-28T23:42:30.839Z,22.17
2023-11-28T23:45:00.590Z,23.27
2023-11-28T23:47:28.113Z,16.33
2023-11-28T23:49:55.665Z,17.93
2023-11-28T23:52:23.715Z,11.23
2023-11-28T23:54:51.324Z,14.57
2023-11-28T23:57:18.835Z,13.83
2023-11-28T23:59:46.814Z,13.80
